Time;durP1;ratioP1;P1;durP2;ratioP2;P2;SDS_P1;SDS_P2;PMS_P1;PMS_P2;Temp;Humidity;BMP_temperature;BMP_pressure;BME280_temperature;BME280_humidity;BME280_pressure;Samples;Min_cycle;Max_cycle;Signal;HPM_P1;HPM_P2
2023/07/14 08:57:15;;;;;;;4.53;2.80;;;;;;;18.57;79.77;101371.22;5069848;28;20719;-66
2023/07/14 08:59:42;;;;;;;5.68;2.67;;;;;;;18.63;79.42;101371.22;5067972;28;20464;-67
2023/07/14 09:02:36;;;;;;;11.23;3.08;;;;;;;18.70;83.73;101363.59;5065571;28;20665;-66
2023/07/14 09:05:07;;;;;;;3.10;2.28;;;;;;;18.75;74.92;101358.13;5069903;28;20039;-67
2023/07/14 09:07:32;;;;;;;5.07;2.55;;;;;;;18.84;79.50;101362.03;5068537;28;20016;-67
2023/07/14 09:09:57;;;;;;;5.35;2.63;;;;;;;18.97;80.57;101355.22;5067665;28;20021;-66
2023/07/14 09:12:34;;;;;;;6.50;2.97;;;;;;;19.06;77.72;101359.09;5069410;28;20017;-67
2023/07/14 09:15:19;;;;;;;5.47;2.63;;;;;;;19.07;76.78;101355.25;5069636;28;20024;-67
2023/07/14 09:18:03;;;;;;;6.28;2.92;;;;;;;19.19;75.63;101343.19;5064829;28;20021;-66
2023/07/14 09:20:47;;;;;;;5.35;2.80;;;;;;;19.54;78.89;101338.88;5067729;28;20393;-66
2023/07/14 09:23:38;;;;;;;6.38;3.28;;;;;;;19.61;75.54;101353.16;5049606;28;20546;-66
2023/07/14 09:26:13;;;;;;;5.68;2.83;;;;;;;19.77;76.47;101334.75;5062838;28;20025;-67
2023/07/14 09:28:48;;;;;;;3.95;2.85;;;;;;;19.72;70.75;101330.09;5068267;28;20047;-69
2023/07/14 09:31:41;;;;;;;3.00;2.55;;;;;;;19.78;76.80;101336.44;5069101;28;20029;-68
2023/07/14 09:34:23;;;;;;;5.28;2.58;;;;;;;19.89;73.46;101332.59;5069351;28;20028;-66
2023/07/14 09:36:48;;;;;;;;;;;;;;;19.98;76.24;101330.94;5057374;28;20448;-66
2023/07/14 09:39:26;;;;;;;5.90;2.53;;;;;;;20.03;71.54;101329.28;5047536;28;19927;-66
2023/07/14 09:41:57;;;;;;;6.28;2.90;;;;;;;20.11;68.63;101325.94;5047935;28;20021;-67
2023/07/14 09:44:25;;;;;;;4.18;2.47;;;;;;;20.14;68.15;101333.63;5049475;28;20025;-66
2023/07/14 09:46:51;;;;;;;2.92;2.28;;;;;;;20.22;69.31;101316.59;5048903;28;20051;-67
2023/07/14 09:49:39;;;;;;;3.33;2.60;;;;;;;20.22;69.54;101318.53;5049101;28;20029;-65
2023/07/14 09:52:14;;;;;;;3.70;2.30;;;;;;;20.26;69.67;101314.94;5048851;28;20060;-65
2023/07/14 09:54:50;;;;;;;6.20;2.60;;;;;;;20.39;70.31;101301.72;5048232;28;20028;-67
2023/07/14 09:57:18;;;;;;;6.90;2.78;;;;;;;20.44;69.02;101310.78;5046065;28;20477;-66
2023/07/14 09:59:58;;;;;;;4.80;2.60;;;;;;;20.46;68.41;101308.56;5045015;28;20448;-66
2023/07/14 10:02:32;;;;;;;5.57;2.35;;;;;;;20.53;69.65;101308.25;5046028;28;20039;-66
2023/07/14 10:05:24;;;;;;;6.65;2.40;;;;;;;20.53;69.25;101308.25;5048479;28;20025;-70
2023/07/14 10:07:50;;;;;;;7.97;2.63;;;;;;;20.51;65.98;101289.28;5036587;28;20029;-69
2023/07/14 10:10:24;;;;;;;6.72;2.42;;;;;;;20.64;67.73;101290.63;5035365;28;20026;-70
2023/07/14 10:12:50;;;;;;;4.85;2.40;;;;;;;20.73;67.56;101274.38;5035234;28;20105;-67
2023/07/14 10:15:25;;;;;;;5.57;2.53;;;;;;;20.75;66.87;101276.84;5035360;28;20025;-70
2023/07/14 10:17:53;;;;;;;7.03;2.50;;;;;;;20.77;65.16;101275.44;5035033;28;20025;-68
2023/07/14 10:20:20;;;;;;;4.93;2.28;;;;;;;20.69;63.11;101268.59;5033402;28;20230;-66
2023/07/14 10:22:51;;;;;;;4.18;2.50;;;;;;;20.81;65.14;101271.03;5033284;28;20492;-69
2023/07/14 10:25:18;;;;;;;4.75;2.60;;;;;;;20.88;65.92;101263.28;5032682;28;20029;-67
2023/07/14 10:27:56;;;;;;;4.13;2.20;;;;;;;20.95;64.96;101260.19;5063329;28;20029;-67
2023/07/14 10:30:42;;;;;;;4.78;2.30;;;;;;;21.04;63.89;101258.50;5015066;28;20454;-69
2023/07/14 10:33:34;;;;;;;5.32;2.42;;;;;;;21.09;63.32;101254.06;5003276;28;20041;-68
2023/07/14 10:36:08;;;;;;;5.53;2.13;;;;;;;21.05;61.95;101243.63;5025656;28;20056;-69
2023/07/14 10:38:40;;;;;;;5.82;2.22;;;;;;;21.19;61.76;101243.78;5032741;28;20033;-69
2023/07/14 10:41:09;;;;;;;3.92;2.03;;;;;;;21.35;60.92;101238.19;5034066;28;20033;-66
2023/07/14 10:43:50;;;;;;;4.32;2.00;;;;;;;21.57;61.90;101240.47;5034066;28;20476;-68
2023/07/14 10:46:19;;;;;;;5.35;2.17;;;;;;;21.58;58.43;101233.88;5032747;28;20087;-68
2023/07/14 10:49:23;;;;;;;5.10;2.10;;;;;;;21.63;59.10;101233.00;5030653;28;20053;-67
2023/07/14 10:51:57;;;;;;;4.20;2.17;;;;;;;21.47;58.12;101226.78;5029003;28;20116;-68
2023/07/14 10:54:47;;;;;;;3.10;2.03;;;;;;;21.47;59.20;101222.09;5030822;28;20034;-67
2023/07/14 10:57:38;;;;;;;5.05;2.38;;;;;;;21.50;60.41;101223.47;5034394;28;20025;-68
2023/07/14 11:00:25;;;;;;;;;;;;;;;21.53;61.39;101225.66;5035388;28;20021;-67
2023/07/14 11:03:09;;;;;;;4.55;2.38;;;;;;;21.41;59.08;101229.59;5028694;28;19913;-65
2023/07/14 11:05:42;;;;;;;4.93;2.00;;;;;;;21.37;59.00;101216.69;5028343;28;20476;-66
2023/07/14 11:08:11;;;;;;;5.68;2.40;;;;;;;21.51;59.89;101211.34;5032064;28;20041;-66
2023/07/14 11:10:42;;;;;;;3.58;2.10;;;;;;;21.66;59.55;101211.19;5059021;28;20032;-65
2023/07/14 11:13:17;;;;;;;;;;;;;;;21.74;62.16;101204.22;5027857;28;20456;-66
2023/07/14 11:15:50;;;;;;;4.20;2.00;;;;;;;21.74;58.67;101196.81;5030298;28;20299;-65
2023/07/14 11:18:29;;;;;;;4.05;2.08;;;;;;;21.75;59.76;101179.16;5033512;28;20453;-66
2023/07/14 11:21:19;;;;;;;6.15;2.30;;;;;;;21.67;57.69;101177.03;5033797;28;20033;-66
2023/07/14 11:24:16;;;;;;;4.25;2.10;;;;;;;21.85;60.87;101180.97;5033854;28;20068;-65
2023/07/14 11:27:03;;;;;;;7.90;2.90;;;;;;;21.90;60.32;101174.59;5033089;28;20029;-66
2023/07/14 11:29:38;;;;;;;5.53;2.35;;;;;;;22.02;58.24;101176.94;5032739;28;20471;-66
2023/07/14 11:32:04;;;;;;;4.45;2.58;;;;;;;22.08;57.92;101173.00;5033674;28;20116;-64
2023/07/14 11:34:39;;;;;;;5.00;2.42;;;;;;;22.12;57.07;101166.59;5032987;28;20441;-65
2023/07/14 11:37:29;;;;;;;5.72;2.20;;;;;;;22.25;58.90;101169.72;5033341;28;20035;-66
2023/07/14 11:39:58;;;;;;;3.83;2.33;;;;;;;22.25;56.54;101169.72;5032302;28;20021;-66
2023/07/14 11:42:32;;;;;;;8.90;2.30;;;;;;;22.52;58.72;101168.31;5033685;28;20026;-70
2023/07/14 11:45:00;;;;;;;5.53;2.40;;;;;;;22.58;56.73;101158.84;5031880;28;20037;-67
2023/07/14 11:47:34;;;;;;;3.35;2.10;;;;;;;22.60;54.51;101151.06;5032789;28;20029;-67
2023/07/14 11:50:02;;;;;;;4.07;2.10;;;;;;;22.55;54.84;101154.72;5033273;28;20435;-65
2023/07/14 11:52:30;;;;;;;4.97;2.40;;;;;;;22.61;55.02;101150.75;5033531;28;20445;-65
2023/07/14 11:55:06;;;;;;;8.30;2.55;;;;;;;22.78;54.65;101147.50;5031064;28;20116;-65
2023/07/14 11:57:48;;;;;;;4.32;2.30;;;;;;;22.92;54.99;101139.25;5033460;28;20056;-65
2023/07/14 12:00:13;;;;;;;5.28;2.72;;;;;;;22.88;53.99;101134.66;5031442;28;20037;-67
2023/07/14 12:02:54;;;;;;;5.13;2.58;;;;;;;22.95;54.45;101129.56;5030255;28;20622;-67
2023/07/14 12:05:31;;;;;;;5.18;2.15;;;;;;;22.97;53.63;101130.06;5033139;28;20033;-71
2023/07/14 12:08:07;;;;;;;4.88;2.50;;;;;;;23.05;53.19;101120.28;5031174;28;20449;-66
2023/07/14 12:10:38;;;;;;;5.82;2.60;;;;;;;23.22;54.41;101122.47;5032661;28;20083;-65
2023/07/14 12:13:18;;;;;;;;;;;;;;;23.30;54.10;101119.03;5033049;28;20099;-68
2023/07/14 12:15:57;;;;;;;3.78;2.00;;;;;;;23.46;51.87;101114.88;5029347;28;19912;-67
2023/07/14 12:18:22;;;;;;;3.85;2.28;;;;;;;23.51;50.40;101114.75;5031925;28;20526;-66
2023/07/14 12:20:49;;;;;;;6.40;2.20;;;;;;;23.49;50.82;101108.72;5032507;28;20025;-67
2023/07/14 12:23:29;;;;;;;5.55;2.20;;;;;;;23.60;51.84;101097.47;5032521;28;20075;-68
2023/07/14 12:26:08;;;;;;;7.38;2.45;;;;;;;23.59;51.47;101093.88;5032181;28;20033;-67
2023/07/14 12:28:36;;;;;;;4.10;2.10;;;;;;;23.73;50.82;101084.78;5031979;28;20021;-68
2023/07/14 12:31:11;;;;;;;3.38;2.30;;;;;;;23.79;51.24;101087.09;5032368;28;20116;-67
2023/07/14 12:33:37;;;;;;;6.25;2.28;;;;;;;23.82;49.42;101089.25;5032541;28;20068;-66
2023/07/14 12:36:03;;;;;;;3.60;2.20;;;;;;;23.90;49.75;101079.47;5030768;28;20552;-69
2023/07/14 12:38:30;;;;;;;5.22;2.30;;;;;;;23.92;49.98;101070.88;5031088;28;20041;-66
2023/07/14 12:40:56;;;;;;;3.78;2.50;;;;;;;23.97;49.38;101062.44;5032493;28;20025;-68
2023/07/14 12:43:39;;;;;;;7.80;2.42;;;;;;;24.08;50.53;101063.88;5031647;28;20025;-69
2023/07/14 12:46:31;;;;;;;8.55;2.33;;;;;;;24.21;50.96;101065.75;5029800;28;20037;-68
2023/07/14 12:49:20;;;;;;;4.25;2.40;;;;;;;24.33;50.59;101069.91;5026468;28;20041;-67
2023/07/14 12:51:46;;;;;;;3.53;1.90;;;;;;;24.51;50.60;101062.56;5032670;28;20026;-66
2023/07/14 12:54:17;;;;;;;6.93;2.50;;;;;;;24.45;49.27;101059.09;5028323;28;20033;-69
2023/07/14 12:56:43;;;;;;;6.72;2.30;;;;;;;24.39;48.26;101052.06;5028767;28;20389;-67
2023/07/14 12:59:15;;;;;;;5.00;2.35;;;;;;;24.54;49.52;101051.69;5030068;28;20036;-72
2023/07/14 13:01:44;;;;;;;4.28;2.10;;;;;;;24.56;48.52;101043.91;5029194;28;20025;-70
2023/07/14 13:04:11;;;;;;;5.75;2.28;;;;;;;24.71;48.37;101036.38;5032264;28;20037;-70
2023/07/14 13:06:37;;;;;;;3.67;2.53;;;;;;;24.78;47.99;101031.19;5032020;28;20041;-69
2023/07/14 13:09:20;;;;;;;2.75;1.98;;;;;;;24.88;48.72;101035.63;5032247;28;20022;-66
2023/07/14 13:11:48;;;;;;;4.50;2.47;;;;;;;24.98;47.74;101032.59;5032508;28;20061;-70
2023/07/14 13:14:19;;;;;;;5.03;2.45;;;;;;;25.18;45.99;101017.38;5032381;28;20100;-66
2023/07/14 13:16:45;;;;;;;;;;;;;;;25.35;48.35;101022.19;5030821;28;20030;-66
2023/07/14 13:19:23;;;;;;;6.30;2.50;;;;;;;25.02;47.55;101008.69;5028846;28;19920;-66
2023/07/14 13:21:49;;;;;;;4.00;2.10;;;;;;;25.00;47.33;100999.06;5023962;28;20545;-67
2023/07/14 13:24:19;;;;;;;5.05;2.45;;;;;;;24.99;47.06;100992.72;5012626;28;20501;-67
2023/07/14 13:26:59;;;;;;;6.03;2.60;;;;;;;24.95;47.70;100994.47;5038115;28;20369;-66
2023/07/14 13:29:28;;;;;;;3.63;2.13;;;;;;;24.78;46.13;100989.69;5015444;28;20055;-68
2023/07/14 13:31:56;;;;;;;7.57;2.30;;;;;;;24.71;47.61;100981.81;5012254;28;20162;-65
2023/07/14 13:34:32;;;;;;;4.38;2.20;;;;;;;24.79;47.73;100980.25;5029276;28;20025;-65
2023/07/14 13:37:04;;;;;;;4.75;2.25;;;;;;;24.75;48.46;100977.28;5022722;28;20160;-65
2023/07/14 13:39:45;;;;;;;4.82;2.50;;;;;;;24.72;48.21;100968.81;5031208;28;20025;-66
2023/07/14 13:42:23;;;;;;;5.85;2.15;;;;;;;24.66;47.57;100973.69;5032943;28;20025;-65
2023/07/14 13:44:51;;;;;;;6.57;2.30;;;;;;;24.58;47.05;100971.69;5035767;28;20029;-66
2023/07/14 13:47:23;;;;;;;7.45;2.25;;;;;;;24.60;47.59;100974.94;5034915;28;20115;-66
2023/07/14 13:49:50;;;;;;;3.90;2.22;;;;;;;24.80;48.11;100962.50;5035570;28;20567;-66
2023/07/14 13:52:21;;;;;;;5.13;2.10;;;;;;;24.84;46.39;100960.75;5033828;28;20025;-70
2023/07/14 13:54:53;;;;;;;3.78;2.40;;;;;;;24.92;46.84;100954.41;5034696;28;20021;-66
2023/07/14 13:57:18;;;;;;;6.95;2.50;;;;;;;24.99;46.08;100942.09;5034926;28;20146;-66
2023/07/14 13:59:45;;;;;;;3.85;2.28;;;;;;;25.09;46.08;100942.59;5034129;28;20056;-65
2023/07/14 14:02:36;;;;;;;6.80;2.80;;;;;;;25.32;47.30;100933.38;5033127;28;20346;-65
2023/07/14 14:05:03;;;;;;;3.92;2.30;;;;;;;25.39;45.83;100930.94;5034935;28;20060;-67
2023/07/14 14:07:30;;;;;;;3.53;2.10;;;;;;;25.25;45.66;100925.53;5033159;28;20028;-66
2023/07/14 14:09:55;;;;;;;4.07;2.20;;;;;;;25.13;45.27;100912.31;5033770;28;20033;-67
2023/07/14 14:12:21;;;;;;;3.50;2.35;;;;;;;25.13;45.45;100909.53;5035413;28;20053;-66
2023/07/14 14:14:47;;;;;;;3.72;2.50;;;;;;;25.08;44.67;100909.69;5033854;28;20453;-66
2023/07/14 14:17:31;;;;;;;4.68;2.38;;;;;;;25.02;45.84;100899.91;5029764;28;20075;-65
2023/07/14 14:19:57;;;;;;;5.68;2.60;;;;;;;24.95;44.95;100894.81;5015473;28;20108;-65
2023/07/14 14:22:22;;;;;;;4.00;2.47;;;;;;;24.91;45.90;100886.38;5030383;28;20501;-65
2023/07/14 14:24:47;;;;;;;4.43;2.38;;;;;;;24.90;46.86;100873.66;5035223;28;20469;-65
2023/07/14 14:27:28;;;;;;;5.70;2.50;;;;;;;24.84;44.98;100874.13;5034488;28;20108;-65
2023/07/14 14:29:54;;;;;;;5.00;2.45;;;;;;;24.75;44.75;100871.34;5034596;28;20032;-66
2023/07/14 14:32:23;;;;;;;7.13;2.40;;;;;;;24.72;45.20;100861.72;5034015;28;20428;-66
2023/07/14 14:34:54;;;;;;;5.55;2.50;;;;;;;24.63;43.92;100858.09;5034965;28;20041;-66
2023/07/14 14:37:19;;;;;;;3.90;2.63;;;;;;;24.63;45.05;100849.81;5034584;28;20036;-66
2023/07/14 14:39:44;;;;;;;6.22;2.92;;;;;;;24.59;45.30;100838.56;5032211;28;20025;-65
2023/07/14 14:42:15;;;;;;;3.92;2.60;;;;;;;24.58;45.02;100836.94;5034371;28;20036;-66
2023/07/14 14:44:41;;;;;;;7.32;2.78;;;;;;;24.58;44.94;100839.69;5034844;28;20108;-67
2023/07/14 14:47:13;;;;;;;3.40;2.67;;;;;;;24.60;44.82;100833.84;5031491;28;20075;-69
2023/07/14 14:49:38;;;;;;;5.97;2.53;;;;;;;24.62;45.84;100823.28;5033104;28;20044;-67
2023/07/14 14:52:04;;;;;;;4.55;2.80;;;;;;;24.66;44.97;100821.50;5034076;28;20026;-66
2023/07/14 14:54:29;;;;;;;6.43;3.05;;;;;;;24.65;45.24;100816.28;5033158;28;20021;-66
2023/07/14 14:56:55;;;;;;;5.35;2.80;;;;;;;24.68;44.55;100819.22;5034303;28;20057;-68
2023/07/14 14:59:23;;;;;;;7.20;2.75;;;;;;;24.68;44.54;100812.88;5032742;28;20021;-65
2023/07/14 15:01:49;;;;;;;4.10;2.50;;;;;;;24.64;44.06;100809.13;5030539;28;20123;-66
2023/07/14 15:04:20;;;;;;;6.90;3.22;;;;;;;24.64;45.25;100814.66;5034228;28;20069;-65
2023/07/14 15:06:47;;;;;;;4.60;2.88;;;;;;;24.64;44.48;100804.41;5034742;28;20030;-65
2023/07/14 15:09:13;;;;;;;5.07;2.88;;;;;;;24.64;44.20;100807.19;5034189;28;20104;-66
2023/07/14 15:11:40;;;;;;;4.70;2.65;;;;;;;24.65;44.87;100789.41;5032570;28;21524;-65
2023/07/14 15:14:09;;;;;;;6.00;2.60;;;;;;;24.63;44.63;100779.84;5033882;28;20021;-64
2023/07/14 15:16:34;;;;;;;6.25;2.70;;;;;;;24.64;44.51;100764.84;5034167;28;20018;-65
2023/07/14 15:19:00;;;;;;;3.83;2.67;;;;;;;24.70;46.74;100747.78;5033844;28;20021;-72
2023/07/14 15:21:25;;;;;;;5.47;2.53;;;;;;;24.74;48.17;100747.94;5032571;28;20034;-67
2023/07/14 15:23:52;;;;;;;5.15;2.90;;;;;;;24.71;47.86;100754.94;5033926;28;20058;-65
2023/07/14 15:26:20;;;;;;;4.03;2.70;;;;;;;24.67;46.07;100737.38;5032441;28;20535;-63
2023/07/14 15:28:46;;;;;;;6.55;2.60;;;;;;;24.63;46.60;100733.59;5028968;28;20100;-63
2023/07/14 15:31:14;;;;;;;5.82;2.70;;;;;;;24.56;44.84;100731.31;5033622;28;20031;-63
2023/07/14 15:33:39;;;;;;;3.80;2.42;;;;;;;24.52;45.68;100733.06;5033825;28;20049;-63
2023/07/14 15:36:05;;;;;;;4.80;2.60;;;;;;;24.48;45.90;100726.56;5035730;28;20056;-63
2023/07/14 15:38:30;;;;;;;6.38;2.60;;;;;;;24.49;46.56;100735.66;5043926;28;20463;-63
2023/07/14 15:40:56;;;;;;;8.70;2.88;;;;;;;24.49;46.11;100730.97;5032951;28;20041;-64
2023/07/14 15:43:26;;;;;;;5.50;2.60;;;;;;;24.52;46.66;100724.78;5033049;28;20032;-63
2023/07/14 15:45:55;;;;;;;6.72;2.40;;;;;;;24.48;45.38;100718.25;5032482;28;20021;-63
2023/07/14 15:48:30;;;;;;;4.28;2.50;;;;;;;24.51;46.84;100723.13;5033298;28;20029;-63
2023/07/14 15:50:56;;;;;;;6.35;2.80;;;;;;;24.54;45.88;100716.97;5033025;28;20029;-63
2023/07/14 15:53:25;;;;;;;4.75;2.88;;;;;;;24.57;45.25;100702.47;5030973;28;20045;-64
2023/07/14 15:55:51;;;;;;;4.00;2.70;;;;;;;24.56;45.39;100698.09;5030553;28;20567;-69
2023/07/14 15:58:25;;;;;;;4.28;2.78;;;;;;;24.57;45.70;100688.66;5031753;28;20822;-64
2023/07/14 16:00:53;;;;;;;7.53;2.80;;;;;;;24.62;45.31;100687.69;5028251;28;20361;-64
2023/07/14 16:03:20;;;;;;;5.55;2.47;;;;;;;24.60;45.67;100684.47;5032787;28;20550;-64
2023/07/14 16:05:45;;;;;;;4.45;2.80;;;;;;;24.59;46.22;100680.06;5030170;28;21683;-64
